Time;durP1;ratioP1;P1;durP2;ratioP2;P2;SDS_P1;SDS_P2;PMS_P1;PMS_P2;Temp;Humidity;BMP_temperature;BMP_pressure;BME280_temperature;BME280_humidity;BME280_pressure;Samples;Min_cycle;Max_cycle;Signal;HPM_P1;HPM_P2
2020/11/02 00:02:05;;;;;;;1.60;1.50;;;;;;;20.39;61.71;100314.19;;;;-52
2020/11/02 00:05:05;;;;;;;1.61;1.47;;;;;;;20.38;61.73;100312.98;;;;-52
2020/11/02 00:08:05;;;;;;;1.59;1.45;;;;;;;20.37;61.70;100308.66;;;;-52
2020/11/02 00:11:05;;;;;;;1.61;1.50;;;;;;;20.37;61.68;100301.91;;;;-52
2020/11/02 00:14:06;;;;;;;1.52;1.40;;;;;;;20.35;61.68;100299.79;;;;-63
2020/11/02 00:17:05;;;;;;;1.67;1.51;;;;;;;20.35;61.70;100302.06;;;;-63
2020/11/02 00:20:05;;;;;;;2.97;1.53;;;;;;;20.34;61.72;100307.78;;;;-50
2020/11/02 00:23:05;;;;;;;2.53;1.49;;;;;;;20.33;61.71;100301.91;;;;-50
2020/11/02 00:26:05;;;;;;;1.60;1.50;;;;;;;20.33;61.71;100300.94;;;;-50
2020/11/02 00:29:05;;;;;;;1.59;1.49;;;;;;;20.32;61.73;100300.21;;;;-50
2020/11/02 00:32:05;;;;;;;1.57;1.47;;;;;;;20.31;61.78;100302.72;;;;-63
2020/11/02 00:35:05;;;;;;;1.90;1.46;;;;;;;20.29;61.74;100304.83;;;;-62
2020/11/02 00:38:05;;;;;;;1.53;1.43;;;;;;;20.28;61.79;100295.00;;;;-63
2020/11/02 00:41:05;;;;;;;1.40;1.30;;;;;;;20.27;61.79;100294.98;;;;-63
2020/11/02 00:44:05;;;;;;;1.54;1.44;;;;;;;20.27;61.76;100293.69;;;;-63
2020/11/02 00:47:05;;;;;;;1.60;1.50;;;;;;;20.26;61.76;100290.52;;;;-62
2020/11/02 00:50:05;;;;;;;1.45;1.35;;;;;;;20.26;61.75;100293.05;;;;-63
2020/11/02 00:53:05;;;;;;;1.43;1.30;;;;;;;20.24;61.79;100289.53;;;;-63
2020/11/02 00:56:05;;;;;;;1.65;1.46;;;;;;;20.23;61.82;100287.41;;;;-62
2020/11/02 00:59:05;;;;;;;1.50;1.40;;;;;;;20.23;61.80;100293.45;;;;-62
2020/11/02 01:02:05;;;;;;;1.43;1.33;;;;;;;20.22;61.76;100292.14;;;;-63
2020/11/02 01:05:05;;;;;;;1.50;1.40;;;;;;;20.21;61.76;100289.23;;;;-63
2020/11/02 01:08:05;;;;;;;1.58;1.48;;;;;;;20.21;61.82;100290.59;;;;-63
2020/11/02 01:11:05;;;;;;;1.50;1.40;;;;;;;20.20;61.81;100287.17;;;;-63
2020/11/02 01:14:05;;;;;;;1.94;1.41;;;;;;;20.19;61.79;100282.69;;;;-62
2020/11/02 01:17:07;;;;;;;1.55;1.40;;;;;;;20.18;61.80;100279.61;;;;-52
2020/11/02 01:20:07;;;;;;;1.40;1.30;;;;;;;20.18;61.83;100290.02;;;;-52
2020/11/02 01:23:05;;;;;;;1.49;1.35;;;;;;;20.17;61.80;100286.38;;;;-55
2020/11/02 01:26:07;;;;;;;1.69;1.50;;;;;;;20.17;61.84;100292.20;;;;-56
2020/11/02 01:29:06;;;;;;;1.31;1.21;;;;;;;20.16;61.85;100291.56;;;;-56
2020/11/02 01:32:05;;;;;;;1.40;1.30;;;;;;;20.16;61.84;100290.92;;;;-55
2020/11/02 01:35:05;;;;;;;1.50;1.40;;;;;;;20.15;61.85;100294.73;;;;-55
2020/11/02 01:38:05;;;;;;;1.41;1.31;;;;;;;20.14;61.90;100295.22;;;;-56
2020/11/02 01:41:05;;;;;;;1.41;1.31;;;;;;;20.13;61.92;100292.64;;;;-50
2020/11/02 01:44:21;;;;;;;1.54;1.44;;;;;;;20.13;61.90;100297.73;;;;-50
2020/11/02 01:47:24;;;;;;;1.44;1.34;;;;;;;20.13;61.84;100299.28;;;;-51
2020/11/02 01:50:23;;;;;;;1.41;1.31;;;;;;;20.12;61.89;100292.46;;;;-50
2020/11/02 01:53:15;;;;;;;1.39;1.29;;;;;;;20.10;61.87;100287.33;;;;-51
2020/11/02 01:56:08;;;;;;;1.55;1.45;;;;;;;20.08;61.91;100289.03;;;;-50
2020/11/02 01:59:05;;;;;;;1.50;1.40;;;;;;;20.10;61.90;100290.75;;;;-50
2020/11/02 02:02:05;;;;;;;1.40;1.30;;;;;;;20.08;61.93;100291.07;;;;-50
2020/11/02 02:05:07;;;;;;;1.40;1.30;;;;;;;20.07;61.91;100286.27;;;;-50
2020/11/02 02:13:29;;;;;;;1.42;1.32;;;;;;;20.06;61.90;100283.83;;;;-56
2020/11/02 02:17:09;;;;;;;1.37;1.27;;;;;;;20.05;61.98;100285.38;;;;-56
2020/11/02 02:23:55;;;;;;;1.41;1.31;;;;;;;20.04;61.91;100283.81;;;;-55
2020/11/02 02:41:48;;;;;;;1.43;1.33;;;;;;;20.01;61.94;100275.05;;;;-50
2020/11/02 02:44:05;;;;;;;1.67;1.30;;;;;;;20.01;61.98;100271.55;;;;-52
2020/11/02 02:47:05;;;;;;;1.42;1.32;;;;;;;20.00;61.95;100268.03;;;;-52
2020/11/02 02:50:05;;;;;;;1.47;1.37;;;;;;;20.00;61.94;100269.17;;;;-52
2020/11/02 02:53:05;;;;;;;1.20;1.11;;;;;;;20.00;61.96;100266.73;;;;-55
2020/11/02 02:56:05;;;;;;;1.40;1.30;;;;;;;19.99;61.96;100264.96;;;;-56
2020/11/02 02:59:05;;;;;;;1.32;1.22;;;;;;;19.99;61.93;100263.83;;;;-54
2020/11/02 03:02:05;;;;;;;1.39;1.29;;;;;;;19.98;61.93;100253.82;;;;-56
2020/11/02 03:05:06;;;;;;;1.40;1.30;;;;;;;19.98;61.90;100250.95;;;;-56
2020/11/02 03:08:05;;;;;;;1.33;1.23;;;;;;;19.98;61.90;100254.05;;;;-55
2020/11/02 03:11:05;;;;;;;1.79;1.40;;;;;;;19.97;61.94;100256.66;;;;-55
2020/11/02 03:14:05;;;;;;;1.43;1.33;;;;;;;19.96;61.95;100253.47;;;;-57
2020/11/02 03:17:05;;;;;;;1.40;1.30;;;;;;;19.95;61.92;100252.83;;;;-56
2020/11/02 03:20:05;;;;;;;1.37;1.27;;;;;;;19.95;61.95;100252.27;;;;-56
2020/11/02 03:23:05;;;;;;;1.19;1.17;;;;;;;19.95;61.97;100260.31;;;;-50
2020/11/02 03:26:05;;;;;;;1.38;1.28;;;;;;;19.95;61.99;100261.05;;;;-50
2020/11/02 03:29:05;;;;;;;1.35;1.25;;;;;;;19.94;61.97;100262.44;;;;-50
2020/11/02 03:32:05;;;;;;;1.47;1.37;;;;;;;19.94;61.99;100260.95;;;;-51
2020/11/02 03:35:05;;;;;;;1.47;1.37;;;;;;;19.94;61.94;100265.34;;;;-51
2020/11/02 03:38:05;;;;;;;1.39;1.29;;;;;;;19.93;61.96;100263.08;;;;-50
2020/11/02 03:41:05;;;;;;;1.41;1.31;;;;;;;19.93;62.01;100267.96;;;;-50
2020/11/02 03:44:05;;;;;;;1.43;1.33;;;;;;;19.91;62.03;100260.39;;;;-50
2020/11/02 03:47:05;;;;;;;1.34;1.24;;;;;;;19.91;61.95;100257.63;;;;-51
2020/11/02 03:50:05;;;;;;;1.35;1.25;;;;;;;19.90;62.02;100257.72;;;;-62
2020/11/02 03:53:05;;;;;;;1.39;1.29;;;;;;;19.91;61.99;100253.47;;;;-63
2020/11/02 03:56:05;;;;;;;1.56;1.20;;;;;;;19.91;61.98;100255.52;;;;-62
2020/11/02 03:59:05;;;;;;;1.40;1.30;;;;;;;19.89;62.00;100255.66;;;;-63
2020/11/02 04:02:05;;;;;;;1.30;1.20;;;;;;;19.89;61.99;100261.60;;;;-63
2020/11/02 04:05:05;;;;;;;1.36;1.25;;;;;;;19.89;62.01;100259.25;;;;-52
2020/11/02 04:08:05;;;;;;;1.47;1.37;;;;;;;19.88;62.04;100258.50;;;;-50
2020/11/02 04:11:05;;;;;;;1.18;1.15;;;;;;;19.88;62.05;100265.61;;;;-50
2020/11/02 04:14:05;;;;;;;1.37;1.27;;;;;;;19.88;61.96;100266.66;;;;-50
2020/11/02 04:17:05;;;;;;;1.33;1.23;;;;;;;19.86;62.01;100264.29;;;;-50
2020/11/02 04:20:05;;;;;;;1.30;1.20;;;;;;;19.87;62.10;100272.17;;;;-50
2020/11/02 04:23:05;;;;;;;1.32;1.22;;;;;;;19.86;62.08;100272.27;;;;-50
2020/11/02 04:26:05;;;;;;;1.40;1.30;;;;;;;19.85;62.03;100276.23;;;;-50
2020/11/02 04:29:05;;;;;;;1.50;1.23;;;;;;;19.85;62.06;100281.59;;;;-50
2020/11/02 04:32:05;;;;;;;1.33;1.23;;;;;;;19.85;62.12;100281.69;;;;-50
2020/11/02 04:35:05;;;;;;;1.30;1.20;;;;;;;19.84;62.04;100283.48;;;;-50
2020/11/02 04:38:05;;;;;;;1.26;1.20;;;;;;;19.84;62.10;100283.22;;;;-62
2020/11/02 04:41:05;;;;;;;1.37;1.27;;;;;;;19.84;62.06;100279.34;;;;-63
2020/11/02 04:44:05;;;;;;;1.33;1.23;;;;;;;19.83;62.03;100282.66;;;;-63
2020/11/02 04:47:05;;;;;;;1.34;1.24;;;;;;;19.83;62.08;100285.98;;;;-63
2020/11/02 04:50:05;;;;;;;1.11;1.11;;;;;;;19.83;62.03;100280.55;;;;-61
2020/11/02 04:53:05;;;;;;;1.10;1.10;;;;;;;19.82;62.05;100284.45;;;;-62
2020/11/02 04:56:05;;;;;;;1.36;1.26;;;;;;;19.82;62.09;100278.49;;;;-56
2020/11/02 04:59:05;;;;;;;1.29;1.19;;;;;;;19.82;62.11;100280.61;;;;-62
2020/11/02 05:02:05;;;;;;;1.33;1.23;;;;;;;19.81;62.11;100278.42;;;;-62
2020/11/02 05:05:05;;;;;;;1.31;1.21;;;;;;;19.81;62.10;100270.05;;;;-56
2020/11/02 05:08:07;;;;;;;1.15;1.11;;;;;;;19.81;62.10;100273.95;;;;-52
2020/11/02 05:11:05;;;;;;;1.12;1.12;;;;;;;19.81;62.05;100277.53;;;;-56
2020/11/02 05:14:05;;;;;;;1.30;1.20;;;;;;;19.80;62.13;100276.41;;;;-50
2020/11/02 05:17:05;;;;;;;1.30;1.20;;;;;;;19.80;62.11;100282.34;;;;-55
2020/11/02 05:20:05;;;;;;;1.27;1.20;;;;;;;19.80;62.10;100280.80;;;;-56
2020/11/02 05:23:05;;;;;;;1.23;1.16;;;;;;;19.79;62.11;100273.45;;;;-62
2020/11/02 05:26:05;;;;;;;1.27;1.19;;;;;;;19.79;62.08;100271.66;;;;-63
2020/11/02 05:29:05;;;;;;;1.17;1.14;;;;;;;19.78;62.15;100273.55;;;;-62
2020/11/02 05:32:05;;;;;;;1.30;1.20;;;;;;;19.79;62.14;100273.38;;;;-55
2020/11/02 05:35:05;;;;;;;1.35;1.25;;;;;;;19.78;62.13;100276.72;;;;-52
2020/11/02 05:38:05;;;;;;;1.30;1.20;;;;;;;19.79;62.10;100279.63;;;;-63
2020/11/02 05:41:05;;;;;;;1.16;1.15;;;;;;;19.78;62.06;100282.17;;;;-55
2020/11/02 05:44:05;;;;;;;1.27;1.17;;;;;;;19.77;62.13;100284.34;;;;-56
2020/11/02 05:47:05;;;;;;;1.39;1.29;;;;;;;19.78;62.12;100291.12;;;;-63
2020/11/02 05:50:05;;;;;;;1.30;1.20;;;;;;;19.78;62.11;100290.30;;;;-55
2020/11/02 05:53:05;;;;;;;1.33;1.23;;;;;;;19.77;62.09;100293.05;;;;-63
2020/11/02 05:56:05;;;;;;;1.12;1.10;;;;;;;19.76;62.11;100292.64;;;;-62
2020/11/02 05:59:05;;;;;;;1.27;1.20;;;;;;;19.76;62.11;100299.23;;;;-55
2020/11/02 06:02:05;;;;;;;1.14;1.14;;;;;;;19.76;62.11;100298.75;;;;-55
2020/11/02 06:05:05;;;;;;;1.29;1.19;;;;;;;19.76;62.14;100303.14;;;;-56
2020/11/02 06:08:05;;;;;;;1.29;1.21;;;;;;;19.76;62.11;100308.10;;;;-50
2020/11/02 06:11:05;;;;;;;1.40;1.30;;;;;;;19.75;62.09;100310.67;;;;-63
2020/11/02 06:14:05;;;;;;;1.10;1.10;;;;;;;19.75;62.07;100314.59;;;;-52
2020/11/02 06:17:05;;;;;;;1.30;1.20;;;;;;;19.76;62.10;100312.00;;;;-52
2020/11/02 06:20:05;;;;;;;1.14;1.09;;;;;;;19.77;62.13;100313.54;;;;-62
2020/11/02 06:23:05;;;;;;;1.31;1.21;;;;;;;19.77;62.13;100310.93;;;;-50
2020/11/02 06:26:05;;;;;;;1.30;1.20;;;;;;;19.78;62.09;100312.09;;;;-63
2020/11/02 06:29:05;;;;;;;1.11;1.11;;;;;;;19.80;62.06;100314.05;;;;-61
2020/11/02 06:32:05;;;;;;;1.10;1.10;;;;;;;19.81;62.04;100317.45;;;;-51
2020/11/02 06:35:06;;;;;;;1.20;1.10;;;;;;;19.83;62.09;100326.16;;;;-50
2020/11/02 06:38:05;;;;;;;1.10;1.10;;;;;;;19.86;62.10;100329.25;;;;-52
2020/11/02 06:41:05;;;;;;;1.24;1.14;;;;;;;19.88;62.19;100328.79;;;;-50
2020/11/02 06:44:05;;;;;;;1.29;1.19;;;;;;;19.91;62.23;100337.01;;;;-56
2020/11/02 06:47:05;;;;;;;1.32;1.22;;;;;;;19.93;62.25;100335.22;;;;-56
2020/11/02 06:50:05;;;;;;;1.28;1.19;;;;;;;19.97;62.26;100341.41;;;;-56
2020/11/02 06:53:07;;;;;;;1.31;1.21;;;;;;;19.99;62.26;100340.11;;;;-51
2020/11/02 06:56:05;;;;;;;1.21;1.11;;;;;;;20.02;62.39;100335.97;;;;-50
2020/11/02 06:59:05;;;;;;;1.20;1.10;;;;;;;20.06;62.36;100341.58;;;;-63
2020/11/02 07:02:05;;;;;;;1.30;1.20;;;;;;;20.09;62.41;100347.38;;;;-50
2020/11/02 07:05:05;;;;;;;1.10;1.10;;;;;;;20.12;62.36;100350.88;;;;-61
2020/11/02 07:08:05;;;;;;;1.10;1.10;;;;;;;20.13;62.38;100348.98;;;;-52
2020/11/02 07:11:05;;;;;;;1.11;1.10;;;;;;;20.15;62.43;100353.17;;;;-50
2020/11/02 07:14:05;;;;;;;1.30;1.20;;;;;;;20.18;62.41;100353.81;;;;-50
2020/11/02 07:17:05;;;;;;;1.10;1.10;;;;;;;20.19;62.42;100349.77;;;;-50
2020/11/02 07:20:05;;;;;;;1.01;1.01;;;;;;;20.22;62.42;100355.86;;;;-52
2020/11/02 07:23:05;;;;;;;1.28;1.19;;;;;;;20.23;62.47;100358.12;;;;-52
2020/11/02 07:26:05;;;;;;;1.10;1.10;;;;;;;20.26;62.46;100354.73;;;;-56
2020/11/02 07:29:06;;;;;;;1.20;1.10;;;;;;;20.28;62.44;100355.70;;;;-55
2020/11/02 07:32:05;;;;;;;1.28;1.18;;;;;;;20.31;62.49;100362.04;;;;-56
2020/11/02 07:35:05;;;;;;;1.70;1.11;;;;;;;20.33;62.45;100364.16;;;;-56
2020/11/02 07:38:05;;;;;;;1.04;1.04;;;;;;;20.34;62.45;100360.92;;;;-61
2020/11/02 07:41:08;;;;;;;1.48;1.13;;;;;;;20.35;62.44;100366.03;;;;-50
2020/11/02 07:44:05;;;;;;;1.00;1.00;;;;;;;20.36;62.39;100363.86;;;;-52
2020/11/02 07:47:05;;;;;;;1.09;1.09;;;;;;;20.36;62.36;100365.41;;;;-52
2020/11/02 07:50:05;;;;;;;1.07;1.07;;;;;;;20.38;62.33;100371.02;;;;-52
2020/11/02 07:53:05;;;;;;;1.12;1.11;;;;;;;20.39;62.38;100369.80;;;;-52
2020/11/02 07:56:05;;;;;;;1.01;1.01;;;;;;;20.39;62.33;100373.28;;;;-52
2020/11/02 07:59:05;;;;;;;1.16;1.11;;;;;;;20.41;62.34;100375.00;;;;-52
2020/11/02 08:02:05;;;;;;;1.23;1.10;;;;;;;20.41;62.31;100371.41;;;;-50
2020/11/02 08:05:05;;;;;;;1.10;1.09;;;;;;;20.41;62.28;100369.22;;;;-52
2020/11/02 08:08:05;;;;;;;1.10;1.10;;;;;;;20.41;62.24;100368.25;;;;-63
2020/11/02 08:11:05;;;;;;;1.04;1.04;;;;;;;20.42;62.21;100369.80;;;;-52
2020/11/02 08:14:05;;;;;;;1.02;1.02;;;;;;;20.43;62.20;100368.48;;;;-52
2020/11/02 08:17:05;;;;;;;1.11;1.11;;;;;;;20.44;62.21;100370.36;;;;-56
2020/11/02 08:20:05;;;;;;;1.04;1.00;;;;;;;20.45;62.16;100373.14;;;;-56
2020/11/02 08:23:05;;;;;;;1.15;1.11;;;;;;;20.46;62.18;100373.15;;;;-52
2020/11/02 08:26:05;;;;;;;1.17;1.13;;;;;;;20.46;62.12;100371.25;;;;-51
2020/11/02 08:29:05;;;;;;;1.00;1.00;;;;;;;20.48;62.10;100372.06;;;;-50
2020/11/02 08:32:05;;;;;;;1.10;1.10;;;;;;;20.49;62.10;100365.82;;;;-56
2020/11/02 08:35:05;;;;;;;1.24;1.15;;;;;;;20.49;62.09;100364.11;;;;-56
2020/11/02 08:38:05;;;;;;;1.10;1.10;;;;;;;20.51;62.06;100361.02;;;;-56
2020/11/02 08:41:05;;;;;;;1.10;1.10;;;;;;;20.52;62.04;100367.68;;;;-56
2020/11/02 08:44:05;;;;;;;1.11;1.11;;;;;;;20.52;62.06;100368.09;;;;-56
2020/11/02 08:47:05;;;;;;;0.95;0.95;;;;;;;20.53;62.03;100366.88;;;;-56
2020/11/02 08:50:05;;;;;;;1.00;1.00;;;;;;;20.53;61.99;100365.81;;;;-61
2020/11/02 08:53:05;;;;;;;1.10;1.10;;;;;;;20.53;62.00;100367.61;;;;-50
2020/11/02 08:56:05;;;;;;;1.10;1.10;;;;;;;20.54;61.99;100373.64;;;;-50
2020/11/02 08:59:05;;;;;;;1.01;1.01;;;;;;;20.55;61.98;100371.69;;;;-50
2020/11/02 09:02:05;;;;;;;1.12;1.12;;;;;;;20.55;61.96;100363.30;;;;-50
2020/11/02 09:05:05;;;;;;;1.10;1.10;;;;;;;20.55;61.95;100358.73;;;;-50
2020/11/02 09:08:05;;;;;;;1.27;1.10;;;;;;;20.56;61.93;100354.25;;;;-50
2020/11/02 09:11:05;;;;;;;1.07;1.07;;;;;;;20.56;61.90;100358.64;;;;-56
2020/11/02 09:14:05;;;;;;;0.93;0.91;;;;;;;20.56;61.91;100355.55;;;;-63
2020/11/02 09:17:05;;;;;;;1.04;1.04;;;;;;;20.56;61.93;100349.84;;;;-56
2020/11/02 09:20:05;;;;;;;1.05;1.05;;;;;;;20.57;61.87;100345.14;;;;-51
2020/11/02 09:23:05;;;;;;;1.27;1.07;;;;;;;20.55;62.06;100352.06;;;;-52
2020/11/02 09:26:05;;;;;;;2.65;1.37;;;;;;;20.55;62.49;100349.95;;;;-58
2020/11/02 09:29:05;;;;;;;5.35;1.41;;;;;;;20.54;62.82;100354.48;;;;-54
2020/11/02 09:32:06;;;;;;;1.96;1.31;;;;;;;20.53;63.13;100354.02;;;;-57
2020/11/02 09:35:05;;;;;;;4.13;1.27;;;;;;;20.53;62.94;100354.91;;;;-54
2020/11/02 09:38:05;;;;;;;1.57;1.28;;;;;;;20.54;63.17;100356.03;;;;-53
2020/11/02 09:41:05;;;;;;;1.97;1.38;;;;;;;20.55;63.09;100350.76;;;;-55
2020/11/02 09:44:05;;;;;;;4.03;1.50;;;;;;;20.56;63.94;100347.16;;;;-64
2020/11/02 09:47:05;;;;;;;11.62;1.83;;;;;;;20.61;64.02;100349.66;;;;-52
2020/11/02 09:50:05;;;;;;;3.05;1.52;;;;;;;20.63;63.77;100355.68;;;;-53
2020/11/02 09:53:05;;;;;;;5.44;1.47;;;;;;;20.65;63.67;100350.52;;;;-53
2020/11/02 09:56:05;;;;;;;7.37;1.79;;;;;;;20.67;63.61;100357.55;;;;-50
2020/11/02 09:59:05;;;;;;;8.53;1.76;;;;;;;20.70;63.65;100356.16;;;;-58
2020/11/02 10:02:05;;;;;;;4.45;1.76;;;;;;;20.70;63.58;100357.86;;;;-51
2020/11/02 10:05:05;;;;;;;10.83;1.75;;;;;;;20.71;63.54;100358.02;;;;-56
2020/11/02 10:08:05;;;;;;;3.21;1.61;;;;;;;20.72;63.55;100353.23;;;;-55
2020/11/02 10:11:05;;;;;;;2.61;1.59;;;;;;;20.72;63.43;100353.95;;;;-51
2020/11/02 10:14:05;;;;;;;3.05;1.37;;;;;;;20.73;63.31;100354.21;;;;-63
2020/11/02 10:17:06;;;;;;;5.28;1.56;;;;;;;20.74;63.52;100350.38;;;;-56
2020/11/02 10:23:07;;;;;;;3.18;1.49;;;;;;;20.74;63.34;100348.34;;;;-52
2020/11/02 10:27:05;;;;;;;2.80;1.41;;;;;;;20.75;63.25;100349.55;;;;-51
2020/11/02 10:30:05;;;;;;;2.11;1.59;;;;;;;20.74;63.24;100350.45;;;;-50
2020/11/02 10:33:05;;;;;;;3.00;1.61;;;;;;;20.74;63.16;100345.73;;;;-53
2020/11/02 10:36:05;;;;;;;3.34;1.40;;;;;;;20.75;63.08;100349.88;;;;-58
2020/11/02 10:39:05;;;;;;;5.21;1.62;;;;;;;20.75;63.18;100345.82;;;;-52
2020/11/02 10:42:05;;;;;;;3.04;1.70;;;;;;;20.75;63.18;100335.70;;;;-55
2020/11/02 10:45:05;;;;;;;3.09;1.32;;;;;;;20.75;63.18;100331.73;;;;-56
2020/11/02 10:48:05;;;;;;;3.11;1.49;;;;;;;20.75;63.01;100333.67;;;;-58
2020/11/02 10:51:05;;;;;;;2.64;1.55;;;;;;;20.75;63.12;100327.58;;;;-56
2020/11/02 10:54:05;;;;;;;3.18;1.64;;;;;;;20.76;63.08;100334.98;;;;-64
2020/11/02 10:57:05;;;;;;;2.53;1.55;;;;;;;20.75;63.05;100322.18;;;;-56
2020/11/02 11:00:05;;;;;;;2.15;1.57;;;;;;;20.75;63.10;100328.53;;;;-56
2020/11/02 11:03:05;;;;;;;4.17;1.59;;;;;;;20.75;63.03;100322.67;;;;-58
2020/11/02 11:06:05;;;;;;;2.55;1.59;;;;;;;20.75;63.04;100328.62;;;;-62
2020/11/02 11:09:05;;;;;;;4.49;1.67;;;;;;;20.75;63.00;100328.39;;;;-58
2020/11/02 11:12:05;;;;;;;4.08;1.63;;;;;;;20.75;63.10;100324.24;;;;-60
2020/11/02 11:15:05;;;;;;;3.66;1.47;;;;;;;20.75;63.07;100312.27;;;;-65
2020/11/02 11:18:05;;;;;;;3.77;1.69;;;;;;;20.76;62.94;100317.31;;;;-58
2020/11/02 11:21:05;;;;;;;4.43;1.75;;;;;;;20.76;62.82;100306.48;;;;-58
2020/11/02 11:24:05;;;;;;;4.57;1.56;;;;;;;20.75;62.77;100313.80;;;;-58
2020/11/02 11:27:05;;;;;;;3.41;1.64;;;;;;;20.73;62.76;100305.43;;;;-58
2020/11/02 11:30:05;;;;;;;1.93;1.63;;;;;;;20.73;62.68;100307.61;;;;-56
2020/11/02 11:33:05;;;;;;;2.30;1.45;;;;;;;20.71;62.65;100310.45;;;;-56
2020/11/02 11:36:05;;;;;;;3.27;1.68;;;;;;;20.70;62.58;100302.00;;;;-55
2020/11/02 11:39:05;;;;;;;2.52;1.49;;;;;;;20.70;62.57;100305.09;;;;-56
2020/11/02 11:42:05;;;;;;;3.97;1.61;;;;;;;20.68;62.52;100294.91;;;;-57
2020/11/02 11:45:05;;;;;;;2.01;1.49;;;;;;;20.68;62.47;100281.73;;;;-56
2020/11/02 11:48:05;;;;;;;2.27;1.51;;;;;;;20.66;62.45;100282.62;;;;-56
2020/11/02 11:51:05;;;;;;;2.74;1.41;;;;;;;20.66;62.46;100275.63;;;;-57
2020/11/02 11:54:06;;;;;;;2.41;1.40;;;;;;;20.65;62.42;100281.83;;;;-56
2020/11/02 11:57:05;;;;;;;3.72;1.69;;;;;;;20.65;62.38;100281.48;;;;-56
2020/11/02 12:00:05;;;;;;;2.65;1.50;;;;;;;20.64;62.33;100281.57;;;;-57
2020/11/02 12:03:05;;;;;;;1.83;1.57;;;;;;;20.62;62.34;100276.68;;;;-56
2020/11/02 12:06:05;;;;;;;3.61;1.50;;;;;;;20.61;62.31;100274.58;;;;-58
2020/11/02 12:09:05;;;;;;;3.26;1.75;;;;;;;20.61;62.31;100264.73;;;;-58
2020/11/02 12:12:05;;;;;;;1.79;1.41;;;;;;;20.60;62.27;100270.66;;;;-58
2020/11/02 12:15:06;;;;;;;3.95;1.60;;;;;;;20.59;62.30;100268.80;;;;-58
2020/11/02 12:18:05;;;;;;;2.27;1.41;;;;;;;20.58;62.48;100270.41;;;;-60
2020/11/02 12:21:05;;;;;;;2.93;1.59;;;;;;;20.59;62.59;100275.23;;;;-60
2020/11/02 12:24:05;;;;;;;3.72;1.64;;;;;;;20.60;62.63;100269.52;;;;-56
2020/11/02 12:27:05;;;;;;;4.28;1.58;;;;;;;20.59;62.66;100270.19;;;;-52
2020/11/02 12:30:05;;;;;;;6.69;1.60;;;;;;;20.60;62.67;100263.82;;;;-57
2020/11/02 12:33:05;;;;;;;6.07;1.64;;;;;;;20.59;62.73;100266.52;;;;-59
2020/11/02 12:36:05;;;;;;;2.69;1.51;;;;;;;20.60;62.75;100260.57;;;;-61
2020/11/02 12:39:05;;;;;;;4.76;1.57;;;;;;;20.60;62.79;100262.84;;;;-54
2020/11/02 12:42:05;;;;;;;4.07;1.56;;;;;;;20.61;62.74;100271.41;;;;-59
2020/11/02 12:45:05;;;;;;;3.08;1.53;;;;;;;20.60;62.72;100259.99;;;;-60
2020/11/02 12:48:05;;;;;;;3.77;1.62;;;;;;;20.58;62.74;100258.70;;;;-60
2020/11/02 12:51:05;;;;;;;4.43;1.57;;;;;;;20.58;62.67;100260.16;;;;-59
2020/11/02 12:54:05;;;;;;;3.23;1.67;;;;;;;20.57;62.67;100263.65;;;;-59
2020/11/02 12:57:05;;;;;;;3.25;1.65;;;;;;;20.57;62.61;100259.25;;;;-59
2020/11/02 13:00:05;;;;;;;4.22;1.66;;;;;;;20.56;62.58;100253.38;;;;-60
2020/11/02 13:03:05;;;;;;;5.15;1.52;;;;;;;20.55;62.51;100249.97;;;;-60
2020/11/02 13:06:05;;;;;;;2.01;1.44;;;;;;;20.55;62.52;100252.09;;;;-59
2020/11/02 13:09:05;;;;;;;2.17;1.62;;;;;;;20.54;62.54;100251.42;;;;-59
2020/11/02 13:12:05;;;;;;;2.85;1.67;;;;;;;20.54;62.43;100245.72;;;;-60
2020/11/02 13:15:05;;;;;;;2.59;1.43;;;;;;;20.53;62.42;100245.98;;;;-60
2020/11/02 13:18:05;;;;;;;2.23;1.47;;;;;;;20.53;62.42;100241.75;;;;-60
2020/11/02 13:21:05;;;;;;;1.61;1.41;;;;;;;20.52;62.36;100246.30;;;;-59
2020/11/02 13:24:05;;;;;;;2.07;1.44;;;;;;;20.52;62.40;100247.20;;;;-59
2020/11/02 13:27:05;;;;;;;1.93;1.41;;;;;;;20.51;62.36;100243.86;;;;-59
2020/11/02 13:30:05;;;;;;;2.36;1.71;;;;;;;20.51;62.35;100242.48;;;;-58
2020/11/02 13:33:05;;;;;;;1.57;1.43;;;;;;;20.50;62.32;100242.31;;;;-58
2020/11/02 13:36:05;;;;;;;3.12;1.69;;;;;;;20.49;62.32;100242.48;;;;-60
2020/11/02 13:39:05;;;;;;;4.21;1.53;;;;;;;20.48;62.33;100241.98;;;;-60
2020/11/02 13:42:05;;;;;;;2.27;1.68;;;;;;;20.48;62.32;100237.84;;;;-59
2020/11/02 13:45:05;;;;;;;1.91;1.51;;;;;;;20.47;62.33;100237.69;;;;-60
2020/11/02 13:48:05;;;;;;;2.54;1.58;;;;;;;20.47;62.30;100235.16;;;;-60
2020/11/02 13:51:05;;;;;;;2.91;1.62;;;;;;;20.47;62.24;100237.28;;;;-60
2020/11/02 13:54:05;;;;;;;2.02;1.57;;;;;;;20.47;62.27;100233.45;;;;-60
2020/11/02 13:57:05;;;;;;;2.44;1.51;;;;;;;20.46;62.27;100225.30;;;;-59
2020/11/02 14:00:05;;;;;;;2.26;1.49;;;;;;;20.45;62.24;100222.06;;;;-58
2020/11/02 14:03:05;;;;;;;2.83;1.57;;;;;;;20.44;62.24;100227.66;;;;-51
2020/11/02 14:06:05;;;;;;;3.03;1.50;;;;;;;20.45;62.44;100228.16;;;;-50
2020/11/02 14:09:05;;;;;;;2.10;1.52;;;;;;;20.45;62.48;100220.84;;;;-57
2020/11/02 14:12:05;;;;;;;3.19;1.50;;;;;;;20.45;62.51;100219.69;;;;-53
2020/11/02 14:15:05;;;;;;;1.77;1.46;;;;;;;20.46;62.66;100221.50;;;;-52
2020/11/02 14:18:05;;;;;;;1.90;1.50;;;;;;;20.47;62.70;100219.53;;;;-53
2020/11/02 14:21:05;;;;;;;2.97;1.60;;;;;;;20.47;62.80;100217.42;;;;-51
2020/11/02 14:24:05;;;;;;;2.55;1.57;;;;;;;20.47;62.87;100215.62;;;;-55
2020/11/02 14:27:05;;;;;;;2.03;1.50;;;;;;;20.47;62.83;100215.78;;;;-54
2020/11/02 14:30:05;;;;;;;2.11;1.53;;;;;;;20.48;62.92;100217.19;;;;-52
2020/11/02 14:33:05;;;;;;;1.93;1.47;;;;;;;20.49;63.19;100216.68;;;;-56
2020/11/02 14:36:05;;;;;;;2.67;1.52;;;;;;;20.51;63.09;100214.16;;;;-56
2020/11/02 14:39:05;;;;;;;2.85;1.52;;;;;;;20.50;63.03;100216.04;;;;-56
2020/11/02 14:42:05;;;;;;;2.68;1.73;;;;;;;20.49;62.99;100209.11;;;;-50
2020/11/02 14:45:05;;;;;;;2.71;1.62;;;;;;;20.48;62.93;100210.19;;;;-51
2020/11/02 14:48:05;;;;;;;2.06;1.43;;;;;;;20.48;62.87;100209.86;;;;-56
2020/11/02 14:51:05;;;;;;;1.64;1.49;;;;;;;20.47;62.82;100205.45;;;;-56
2020/11/02 14:54:05;;;;;;;2.37;1.47;;;;;;;20.47;62.75;100204.56;;;;-50
2020/11/02 14:57:05;;;;;;;2.73;1.61;;;;;;;20.45;62.77;100204.88;;;;-51
2020/11/02 15:00:05;;;;;;;4.49;1.66;;;;;;;20.45;62.91;100202.36;;;;-51
2020/11/02 15:03:05;;;;;;;1.71;1.44;;;;;;;20.46;62.85;100199.09;;;;-50
2020/11/02 15:06:05;;;;;;;3.29;1.60;;;;;;;20.47;62.92;100199.11;;;;-50
2020/11/02 15:09:05;;;;;;;3.11;1.35;;;;;;;20.46;63.03;100202.70;;;;-55
2020/11/02 15:12:05;;;;;;;2.64;1.50;;;;;;;20.50;63.16;100203.64;;;;-56
2020/11/02 15:15:05;;;;;;;4.31;1.41;;;;;;;20.53;63.42;100210.41;;;;-51
2020/11/02 15:18:05;;;;;;;6.19;1.79;;;;;;;20.54;63.65;100204.28;;;;-61
2020/11/02 15:21:05;;;;;;;5.09;1.50;;;;;;;20.53;63.49;100208.30;;;;-61
2020/11/02 15:24:05;;;;;;;7.22;1.69;;;;;;;20.53;63.24;100211.88;;;;-58
2020/11/02 15:27:05;;;;;;;4.37;1.53;;;;;;;20.51;63.48;100211.95;;;;-63
2020/11/02 15:30:05;;;;;;;4.65;1.60;;;;;;;20.53;63.39;100214.23;;;;-58
2020/11/02 15:33:05;;;;;;;8.85;1.74;;;;;;;20.54;63.75;100215.55;;;;-60
2020/11/02 15:36:05;;;;;;;4.52;1.80;;;;;;;20.55;63.66;100214.06;;;;-59
2020/11/02 15:39:05;;;;;;;5.79;1.58;;;;;;;20.55;63.55;100213.41;;;;-59
2020/11/02 15:42:05;;;;;;;5.12;1.53;;;;;;;20.57;63.60;100210.65;;;;-59
2020/11/02 15:45:05;;;;;;;5.39;1.65;;;;;;;20.59;63.61;100212.71;;;;-59
2020/11/02 15:48:05;;;;;;;5.39;1.77;;;;;;;20.61;63.58;100215.63;;;;-55
2020/11/02 15:51:05;;;;;;;4.03;1.49;;;;;;;20.63;63.54;100220.76;;;;-59
2020/11/02 15:54:05;;;;;;;3.05;1.55;;;;;;;20.65;63.46;100217.41;;;;-62
2020/11/02 15:57:05;;;;;;;3.44;1.54;;;;;;;20.67;63.43;100213.19;;;;-61
2020/11/02 16:00:05;;;;;;;3.59;1.49;;;;;;;20.70;63.49;100214.71;;;;-56
2020/11/02 16:03:05;;;;;;;4.79;1.70;;;;;;;20.73;63.66;100217.70;;;;-54
2020/11/02 16:06:05;;;;;;;5.54;1.74;;;;;;;20.75;63.57;100224.31;;;;-55
2020/11/02 16:09:05;;;;;;;3.33;1.67;;;;;;;20.78;63.63;100220.23;;;;-54
2020/11/02 16:12:05;;;;;;;2.57;1.60;;;;;;;20.80;63.54;100217.45;;;;-59
2020/11/02 16:15:05;;;;;;;3.71;1.50;;;;;;;20.83;63.71;100219.31;;;;-55
2020/11/02 16:18:05;;;;;;;5.68;1.53;;;;;;;20.85;63.72;100225.58;;;;-59
2020/11/02 16:21:06;;;;;;;6.83;1.66;;;;;;;20.88;63.58;100224.94;;;;-60
2020/11/02 16:24:05;;;;;;;6.38;1.50;;;;;;;20.89;63.75;100230.29;;;;-55
2020/11/02 16:27:05;;;;;;;2.47;1.51;;;;;;;20.90;63.73;100228.66;;;;-56
2020/11/02 16:30:05;;;;;;;2.65;1.41;;;;;;;20.91;63.57;100223.85;;;;-57
2020/11/02 16:33:05;;;;;;;3.16;1.69;;;;;;;20.93;63.55;100227.43;;;;-55
2020/11/02 16:36:05;;;;;;;2.08;1.57;;;;;;;20.93;63.51;100226.86;;;;-52
2020/11/02 16:39:05;;;;;;;4.45;1.79;;;;;;;20.94;63.54;100225.72;;;;-57
2020/11/02 16:42:05;;;;;;;4.70;1.60;;;;;;;20.96;63.54;100230.11;;;;-57
2020/11/02 16:45:05;;;;;;;1.73;1.30;;;;;;;20.98;63.55;100228.39;;;;-56
2020/11/02 16:48:05;;;;;;;2.83;1.38;;;;;;;21.00;63.56;100225.70;;;;-57
2020/11/02 16:51:05;;;;;;;3.87;1.69;;;;;;;21.00;63.20;100227.55;;;;-58
2020/11/02 16:54:05;;;;;;;5.77;1.60;;;;;;;21.01;63.04;100230.01;;;;-51
2020/11/02 16:57:05;;;;;;;4.57;1.50;;;;;;;21.00;63.14;100230.51;;;;-61
2020/11/02 17:00:05;;;;;;;5.24;1.57;;;;;;;21.01;63.14;100235.38;;;;-62
2020/11/02 17:03:05;;;;;;;2.51;1.53;;;;;;;21.02;63.12;100235.88;;;;-50
2020/11/02 17:06:05;;;;;;;2.89;1.44;;;;;;;21.03;63.18;100234.06;;;;-50
2020/11/02 17:09:05;;;;;;;5.25;1.64;;;;;;;21.05;63.28;100243.11;;;;-49
2020/11/02 17:12:05;;;;;;;3.93;1.65;;;;;;;21.06;63.25;100242.77;;;;-50